sensor_id;sensor_type;location;lat;lon;timestamp;temperature;humidity
60860;DHT22;46694;54.382;9.708;2023-04-29T00:02:29;8.70;99.90
60860;DHT22;46694;54.382;9.708;2023-04-29T00:05:09;8.70;99.90
60860;DHT22;46694;54.382;9.708;2023-04-29T00:07:49;8.60;99.90
60860;DHT22;46694;54.382;9.708;2023-04-29T00:10:28;8.60;99.90
60860;DHT22;46694;54.382;9.708;2023-04-29T00:13:08;8.60;99.90
60860;DHT22;46694;54.382;9.708;2023-04-29T00:15:48;8.50;99.90
60860;DHT22;46694;54.382;9.708;2023-04-29T00:18:28;8.50;99.90
60860;DHT22;46694;54.382;9.708;2023-04-29T00:21:08;8.50;99.90
60860;DHT22;46694;54.382;9.708;2023-04-29T00:23:47;8.40;99.90
60860;DHT22;46694;54.382;9.708;2023-04-29T00:26:27;8.40;99.90
60860;DHT22;46694;54.382;9.708;2023-04-29T00:29:07;8.30;99.90
60860;DHT22;46694;54.382;9.708;2023-04-29T00:31:47;8.30;99.90
60860;DHT22;46694;54.382;9.708;2023-04-29T00:34:26;8.20;99.90
60860;DHT22;46694;54.382;9.708;2023-04-29T00:37:06;8.20;99.90
60860;DHT22;46694;54.382;9.708;2023-04-29T00:39:45;8.20;99.90
60860;DHT22;46694;54.382;9.708;2023-04-29T00:42:25;8.20;99.90
60860;DHT22;46694;54.382;9.708;2023-04-29T00:45:06;8.20;99.90
60860;DHT22;46694;54.382;9.708;2023-04-29T00:47:46;8.20;99.90
60860;DHT22;46694;54.382;9.708;2023-04-29T00:50:26;8.20;99.90
60860;DHT22;46694;54.382;9.708;2023-04-29T00:53:06;8.10;99.90
60860;DHT22;46694;54.382;9.708;2023-04-29T00:55:47;8.10;99.90
60860;DHT22;46694;54.382;9.708;2023-04-29T00:58:29;8.00;99.90
60860;DHT22;46694;54.382;9.708;2023-04-29T01:01:11;8.00;99.90
60860;DHT22;46694;54.382;9.708;2023-04-29T01:03:51;8.00;99.90
60860;DHT22;46694;54.382;9.708;2023-04-29T01:18:52;7.70;99.90
60860;DHT22;46694;54.382;9.708;2023-04-29T01:21:47;7.70;99.90
60860;DHT22;46694;54.382;9.708;2023-04-29T01:24:27;7.70;99.90
60860;DHT22;46694;54.382;9.708;2023-04-29T01:27:30;7.60;99.90
60860;DHT22;46694;54.382;9.708;2023-04-29T01:33:16;7.60;99.90
60860;DHT22;46694;54.382;9.708;2023-04-29T01:39:22;7.60;99.90
60860;DHT22;46694;54.382;9.708;2023-04-29T01:44:54;7.60;99.90
60860;DHT22;46694;54.382;9.708;2023-04-29T01:47:36;7.50;99.90
60860;DHT22;46694;54.382;9.708;2023-04-29T01:50:16;7.50;99.90
60860;DHT22;46694;54.382;9.708;2023-04-29T01:52:55;7.50;99.90
60860;DHT22;46694;54.382;9.708;2023-04-29T01:55:35;7.50;99.90
60860;DHT22;46694;54.382;9.708;2023-04-29T01:58:15;7.50;99.90
60860;DHT22;46694;54.382;9.708;2023-04-29T02:00:54;7.60;99.90
60860;DHT22;46694;54.382;9.708;2023-04-29T02:03:34;7.60;99.90
60860;DHT22;46694;54.382;9.708;2023-04-29T02:06:14;7.60;99.90
60860;DHT22;46694;54.382;9.708;2023-04-29T02:08:55;7.70;99.90
60860;DHT22;46694;54.382;9.708;2023-04-29T02:11:34;7.70;99.90
60860;DHT22;46694;54.382;9.708;2023-04-29T02:14:14;7.70;99.90
60860;DHT22;46694;54.382;9.708;2023-04-29T02:16:54;7.80;99.90
60860;DHT22;46694;54.382;9.708;2023-04-29T02:19:33;7.70;99.90
60860;DHT22;46694;54.382;9.708;2023-04-29T02:22:13;7.80;99.90
60860;DHT22;46694;54.382;9.708;2023-04-29T02:24:53;7.80;99.90
60860;DHT22;46694;54.382;9.708;2023-04-29T02:27:32;7.80;99.90
60860;DHT22;46694;54.382;9.708;2023-04-29T02:30:12;7.80;99.90
60860;DHT22;46694;54.382;9.708;2023-04-29T02:32:51;7.90;99.90
60860;DHT22;46694;54.382;9.708;2023-04-29T02:35:31;7.90;99.90
60860;DHT22;46694;54.382;9.708;2023-04-29T02:38:11;7.90;99.90
60860;DHT22;46694;54.382;9.708;2023-04-29T02:40:53;7.90;99.90
60860;DHT22;46694;54.382;9.708;2023-04-29T02:43:32;7.90;99.90
60860;DHT22;46694;54.382;9.708;2023-04-29T02:46:11;8.00;99.90
60860;DHT22;46694;54.382;9.708;2023-04-29T02:48:51;8.00;99.90
60860;DHT22;46694;54.382;9.708;2023-04-29T02:51:31;8.00;99.90
60860;DHT22;46694;54.382;9.708;2023-04-29T02:54:10;8.00;99.90
60860;DHT22;46694;54.382;9.708;2023-04-29T02:56:50;8.00;99.90
60860;DHT22;46694;54.382;9.708;2023-04-29T02:59:29;8.10;99.90
60860;DHT22;46694;54.382;9.708;2023-04-29T03:02:09;8.10;99.90
60860;DHT22;46694;54.382;9.708;2023-04-29T03:04:49;8.10;99.90
60860;DHT22;46694;54.382;9.708;2023-04-29T03:07:28;8.10;99.90
60860;DHT22;46694;54.382;9.708;2023-04-29T03:10:08;8.20;99.90
60860;DHT22;46694;54.382;9.708;2023-04-29T03:12:48;8.20;99.90
60860;DHT22;46694;54.382;9.708;2023-04-29T03:15:27;8.20;99.90
60860;DHT22;46694;54.382;9.708;2023-04-29T03:18:07;8.20;99.90
60860;DHT22;46694;54.382;9.708;2023-04-29T03:20:47;8.20;99.90
60860;DHT22;46694;54.382;9.708;2023-04-29T03:23:27;8.20;99.90
60860;DHT22;46694;54.382;9.708;2023-04-29T03:26:07;8.20;99.90
60860;DHT22;46694;54.382;9.708;2023-04-29T03:28:47;8.20;99.90
60860;DHT22;46694;54.382;9.708;2023-04-29T03:31:26;8.30;99.90
60860;DHT22;46694;54.382;9.708;2023-04-29T03:34:06;8.30;99.90
60860;DHT22;46694;54.382;9.708;2023-04-29T03:36:45;8.30;99.90
60860;DHT22;46694;54.382;9.708;2023-04-29T03:39:25;8.30;99.90
60860;DHT22;46694;54.382;9.708;2023-04-29T03:42:06;8.30;99.90
60860;DHT22;46694;54.382;9.708;2023-04-29T03:44:46;8.30;99.90
60860;DHT22;46694;54.382;9.708;2023-04-29T03:47:25;8.30;99.90
60860;DHT22;46694;54.382;9.708;2023-04-29T03:50:06;8.30;99.90
60860;DHT22;46694;54.382;9.708;2023-04-29T03:52:47;8.30;99.90
60860;DHT22;46694;54.382;9.708;2023-04-29T03:55:26;8.30;99.90
60860;DHT22;46694;54.382;9.708;2023-04-29T03:58:06;8.30;99.90
60860;DHT22;46694;54.382;9.708;2023-04-29T04:00:45;8.30;99.90
60860;DHT22;46694;54.382;9.708;2023-04-29T04:03:25;8.30;99.90
60860;DHT22;46694;54.382;9.708;2023-04-29T04:06:06;8.30;99.90
60860;DHT22;46694;54.382;9.708;2023-04-29T04:08:45;8.30;99.90
60860;DHT22;46694;54.382;9.708;2023-04-29T04:11:24;8.30;99.90
60860;DHT22;46694;54.382;9.708;2023-04-29T04:14:04;8.30;99.90
60860;DHT22;46694;54.382;9.708;2023-04-29T04:16:44;8.30;99.90
60860;DHT22;46694;54.382;9.708;2023-04-29T04:19:23;8.30;99.90
60860;DHT22;46694;54.382;9.708;2023-04-29T04:22:05;8.30;99.90
60860;DHT22;46694;54.382;9.708;2023-04-29T04:24:45;8.30;99.90
60860;DHT22;46694;54.382;9.708;2023-04-29T04:27:25;8.30;99.90
60860;DHT22;46694;54.382;9.708;2023-04-29T04:30:05;8.30;99.90
60860;DHT22;46694;54.382;9.708;2023-04-29T04:32:45;8.30;99.90
60860;DHT22;46694;54.382;9.708;2023-04-29T04:35:24;8.40;99.90
60860;DHT22;46694;54.382;9.708;2023-04-29T04:38:04;8.40;99.90
60860;DHT22;46694;54.382;9.708;2023-04-29T04:40:43;8.40;99.90
60860;DHT22;46694;54.382;9.708;2023-04-29T04:43:23;8.40;99.90
60860;DHT22;46694;54.382;9.708;2023-04-29T04:46:10;8.50;99.90
60860;DHT22;46694;54.382;9.708;2023-04-29T04:48:53;8.50;99.90
60860;DHT22;46694;54.382;9.708;2023-04-29T04:51:32;8.50;99.90
60860;DHT22;46694;54.382;9.708;2023-04-29T04:54:11;8.50;99.90
60860;DHT22;46694;54.382;9.708;2023-04-29T04:56:51;8.50;99.90
60860;DHT22;46694;54.382;9.708;2023-04-29T04:59:32;8.50;99.90
60860;DHT22;46694;54.382;9.708;2023-04-29T05:02:11;8.60;99.90
60860;DHT22;46694;54.382;9.708;2023-04-29T05:04:51;8.60;99.90
60860;DHT22;46694;54.382;9.708;2023-04-29T05:07:31;8.70;99.90
60860;DHT22;46694;54.382;9.708;2023-04-29T05:10:13;8.70;99.90
60860;DHT22;46694;54.382;9.708;2023-04-29T05:12:53;8.70;99.90
60860;DHT22;46694;54.382;9.708;2023-04-29T05:15:34;8.80;99.90
60860;DHT22;46694;54.382;9.708;2023-04-29T05:18:13;8.80;99.90
60860;DHT22;46694;54.382;9.708;2023-04-29T05:20:53;8.90;99.90
60860;DHT22;46694;54.382;9.708;2023-04-29T05:23:32;8.90;99.90
60860;DHT22;46694;54.382;9.708;2023-04-29T05:26:12;8.90;99.90
60860;DHT22;46694;54.382;9.708;2023-04-29T05:29:10;9.00;99.90
60860;DHT22;46694;54.382;9.708;2023-04-29T05:31:50;9.00;99.90
60860;DHT22;46694;54.382;9.708;2023-04-29T05:34:30;9.00;99.90
60860;DHT22;46694;54.382;9.708;2023-04-29T05:37:09;9.10;99.90
60860;DHT22;46694;54.382;9.708;2023-04-29T05:39:48;9.10;99.90
60860;DHT22;46694;54.382;9.708;2023-04-29T05:42:28;9.10;99.90
60860;DHT22;46694;54.382;9.708;2023-04-29T05:45:08;9.20;99.90
60860;DHT22;46694;54.382;9.708;2023-04-29T05:47:48;9.30;99.90
60860;DHT22;46694;54.382;9.708;2023-04-29T05:50:28;9.30;99.90
60860;DHT22;46694;54.382;9.708;2023-04-29T05:53:08;9.40;99.90
60860;DHT22;46694;54.382;9.708;2023-04-29T05:55:47;9.50;99.90
60860;DHT22;46694;54.382;9.708;2023-04-29T05:58:29;9.60;99.90
60860;DHT22;46694;54.382;9.708;2023-04-29T06:01:08;9.60;99.90
60860;DHT22;46694;54.382;9.708;2023-04-29T06:03:48;9.70;99.90
60860;DHT22;46694;54.382;9.708;2023-04-29T06:06:28;9.80;99.90
60860;DHT22;46694;54.382;9.708;2023-04-29T06:09:07;9.90;99.90
60860;DHT22;46694;54.382;9.708;2023-04-29T06:11:47;9.90;99.90
60860;DHT22;46694;54.382;9.708;2023-04-29T06:14:26;10.00;99.90
60860;DHT22;46694;54.382;9.708;2023-04-29T06:17:06;10.10;99.90
60860;DHT22;46694;54.382;9.708;2023-04-29T06:19:45;10.20;99.90
60860;DHT22;46694;54.382;9.708;2023-04-29T06:22:25;10.30;99.90
60860;DHT22;46694;54.382;9.708;2023-04-29T06:25:05;10.40;99.90
60860;DHT22;46694;54.382;9.708;2023-04-29T06:27:44;10.60;99.90
60860;DHT22;46694;54.382;9.708;2023-04-29T06:30:25;10.60;99.90
60860;DHT22;46694;54.382;9.708;2023-04-29T06:33:05;10.70;99.90
60860;DHT22;46694;54.382;9.708;2023-04-29T06:35:44;10.80;99.90
60860;DHT22;46694;54.382;9.708;2023-04-29T06:38:24;10.90;99.90
60860;DHT22;46694;54.382;9.708;2023-04-29T06:41:03;11.00;99.90
60860;DHT22;46694;54.382;9.708;2023-04-29T06:43:43;11.20;99.90
60860;DHT22;46694;54.382;9.708;2023-04-29T06:46:23;11.30;99.90
60860;DHT22;46694;54.382;9.708;2023-04-29T06:49:03;11.40;99.90
60860;DHT22;46694;54.382;9.708;2023-04-29T06:51:42;11.50;99.90
60860;DHT22;46694;54.382;9.708;2023-04-29T06:54:22;11.60;99.90
60860;DHT22;46694;54.382;9.708;2023-04-29T06:57:01;11.70;99.90
60860;DHT22;46694;54.382;9.708;2023-04-29T06:59:41;11.80;99.90
60860;DHT22;46694;54.382;9.708;2023-04-29T07:02:21;11.80;99.90
60860;DHT22;46694;54.382;9.708;2023-04-29T07:05:00;11.80;99.90
60860;DHT22;46694;54.382;9.708;2023-04-29T07:07:40;11.80;99.90
60860;DHT22;46694;54.382;9.708;2023-04-29T07:10:20;11.90;99.90
60860;DHT22;46694;54.382;9.708;2023-04-29T07:12:59;12.00;99.90
60860;DHT22;46694;54.382;9.708;2023-04-29T07:15:39;12.10;99.90
60860;DHT22;46694;54.382;9.708;2023-04-29T07:18:18;12.30;99.90
60860;DHT22;46694;54.382;9.708;2023-04-29T07:21:01;12.40;99.90
60860;DHT22;46694;54.382;9.708;2023-04-29T07:23:41;12.50;99.90
60860;DHT22;46694;54.382;9.708;2023-04-29T07:26:20;12.60;99.90
60860;DHT22;46694;54.382;9.708;2023-04-29T07:29:06;12.70;99.90
60860;DHT22;46694;54.382;9.708;2023-04-29T07:31:46;12.70;99.90
60860;DHT22;46694;54.382;9.708;2023-04-29T07:34:25;12.70;99.90
60860;DHT22;46694;54.382;9.708;2023-04-29T07:37:05;12.70;99.90
60860;DHT22;46694;54.382;9.708;2023-04-29T07:39:45;12.70;99.90
60860;DHT22;46694;54.382;9.708;2023-04-29T07:42:25;12.60;99.90
60860;DHT22;46694;54.382;9.708;2023-04-29T07:45:05;12.60;99.90
60860;DHT22;46694;54.382;9.708;2023-04-29T07:47:45;12.70;99.90
60860;DHT22;46694;54.382;9.708;2023-04-29T07:50:24;12.80;99.90
60860;DHT22;46694;54.382;9.708;2023-04-29T07:53:04;12.90;99.90
60860;DHT22;46694;54.382;9.708;2023-04-29T07:55:44;13.20;99.90
60860;DHT22;46694;54.382;9.708;2023-04-29T07:58:23;13.40;99.90
60860;DHT22;46694;54.382;9.708;2023-04-29T08:01:10;13.60;99.90
60860;DHT22;46694;54.382;9.708;2023-04-29T08:03:50;13.90;99.90
60860;DHT22;46694;54.382;9.708;2023-04-29T08:06:29;14.30;99.90
60860;DHT22;46694;54.382;9.708;2023-04-29T08:09:10;14.70;99.90
60860;DHT22;46694;54.382;9.708;2023-04-29T08:11:49;15.10;99.90
60860;DHT22;46694;54.382;9.708;2023-04-29T08:14:29;15.60;99.90
60860;DHT22;46694;54.382;9.708;2023-04-29T08:17:09;16.20;99.90
60860;DHT22;46694;54.382;9.708;2023-04-29T08:19:48;16.70;99.90
60860;DHT22;46694;54.382;9.708;2023-04-29T08:22:27;17.20;99.90
60860;DHT22;46694;54.382;9.708;2023-04-29T08:25:07;17.70;99.90
60860;DHT22;46694;54.382;9.708;2023-04-29T08:27:47;18.00;99.90
60860;DHT22;46694;54.382;9.708;2023-04-29T08:30:27;17.90;99.90
60860;DHT22;46694;54.382;9.708;2023-04-29T08:33:06;17.50;99.90
60860;DHT22;46694;54.382;9.708;2023-04-29T08:35:46;17.40;99.90
60860;DHT22;46694;54.382;9.708;2023-04-29T08:38:25;17.90;99.90
60860;DHT22;46694;54.382;9.708;2023-04-29T08:41:09;18.80;99.90
60860;DHT22;46694;54.382;9.708;2023-04-29T08:43:49;19.70;99.90
60860;DHT22;46694;54.382;9.708;2023-04-29T08:46:30;20.20;99.90
60860;DHT22;46694;54.382;9.708;2023-04-29T08:49:10;20.20;99.90
60860;DHT22;46694;54.382;9.708;2023-04-29T08:51:50;20.00;99.90
60860;DHT22;46694;54.382;9.708;2023-04-29T08:54:31;20.00;99.90
60860;DHT22;46694;54.382;9.708;2023-04-29T08:57:11;20.00;99.90
60860;DHT22;46694;54.382;9.708;2023-04-29T08:59:51;20.10;99.90
60860;DHT22;46694;54.382;9.708;2023-04-29T09:02:31;20.60;99.90
60860;DHT22;46694;54.382;9.708;2023-04-29T09:05:11;21.10;99.90
60860;DHT22;46694;54.382;9.708;2023-04-29T09:07:51;21.60;99.90
60860;DHT22;46694;54.382;9.708;2023-04-29T09:10:31;22.00;99.90
60860;DHT22;46694;54.382;9.708;2023-04-29T09:13:31;22.30;99.90
60860;DHT22;46694;54.382;9.708;2023-04-29T09:16:11;22.50;99.90
60860;DHT22;46694;54.382;9.708;2023-04-29T09:18:51;22.60;99.90
60860;DHT22;46694;54.382;9.708;2023-04-29T09:21:32;22.50;99.90
60860;DHT22;46694;54.382;9.708;2023-04-29T09:24:24;22.30;99.90
60860;DHT22;46694;54.382;9.708;2023-04-29T09:27:05;22.20;99.90
60860;DHT22;46694;54.382;9.708;2023-04-29T09:29:59;22.30;99.00
60860;DHT22;46694;54.382;9.708;2023-04-29T09:32:39;22.70;97.10
60860;DHT22;46694;54.382;9.708;2023-04-29T09:35:27;22.90;96.50
60860;DHT22;46694;54.382;9.708;2023-04-29T09:38:11;23.20;95.40
60860;DHT22;46694;54.382;9.708;2023-04-29T09:40:51;23.30;95.00
60860;DHT22;46694;54.382;9.708;2023-04-29T09:43:31;23.30;94.00
60860;DHT22;46694;54.382;9.708;2023-04-29T09:46:12;23.30;93.80
60860;DHT22;46694;54.382;9.708;2023-04-29T09:48:51;23.30;92.50
60860;DHT22;46694;54.382;9.708;2023-04-29T09:51:34;23.20;91.40
60860;DHT22;46694;54.382;9.708;2023-04-29T09:54:32;23.10;90.80
60860;DHT22;46694;54.382;9.708;2023-04-29T09:57:14;22.90;90.10
60860;DHT22;46694;54.382;9.708;2023-04-29T09:59:54;22.70;89.80
60860;DHT22;46694;54.382;9.708;2023-04-29T10:02:34;22.50;88.20
60860;DHT22;46694;54.382;9.708;2023-04-29T10:05:15;22.40;90.10
60860;DHT22;46694;54.382;9.708;2023-04-29T10:07:57;22.70;90.20
60860;DHT22;46694;54.382;9.708;2023-04-29T10:10:40;22.70;88.60
60860;DHT22;46694;54.382;9.708;2023-04-29T10:13:20;22.70;86.40
60860;DHT22;46694;54.382;9.708;2023-04-29T10:18:55;22.30;82.00
60860;DHT22;46694;54.382;9.708;2023-04-29T10:21:35;22.10;81.60
60860;DHT22;46694;54.382;9.708;2023-04-29T10:24:17;22.20;81.80
60860;DHT22;46694;54.382;9.708;2023-04-29T10:26:58;22.20;81.20
60860;DHT22;46694;54.382;9.708;2023-04-29T10:29:39;22.20;81.40
60860;DHT22;46694;54.382;9.708;2023-04-29T10:32:21;22.40;81.80
60860;DHT22;46694;54.382;9.708;2023-04-29T10:35:02;22.40;80.20
60860;DHT22;46694;54.382;9.708;2023-04-29T10:37:45;21.80;80.10
60860;DHT22;46694;54.382;9.708;2023-04-29T10:40:44;21.40;82.50
60860;DHT22;46694;54.382;9.708;2023-04-29T10:43:26;21.50;81.40
60860;DHT22;46694;54.382;9.708;2023-04-29T10:46:22;21.10;79.80
60860;DHT22;46694;54.382;9.708;2023-04-29T10:49:06;20.60;81.20
60860;DHT22;46694;54.382;9.708;2023-04-29T10:51:47;20.50;84.00
60860;DHT22;46694;54.382;9.708;2023-04-29T10:54:27;20.50;84.70
60860;DHT22;46694;54.382;9.708;2023-04-29T10:57:19;20.40;85.30
60860;DHT22;46694;54.382;9.708;2023-04-29T11:00:01;20.50;85.40
60860;DHT22;46694;54.382;9.708;2023-04-29T11:02:41;20.30;84.40
60860;DHT22;46694;54.382;9.708;2023-04-29T11:05:34;20.20;83.60
60860;DHT22;46694;54.382;9.708;2023-04-29T11:08:24;20.30;82.90
60860;DHT22;46694;54.382;9.708;2023-04-29T11:11:05;20.50;80.90
60860;DHT22;46694;54.382;9.708;2023-04-29T11:13:47;20.30;77.90
60860;DHT22;46694;54.382;9.708;2023-04-29T11:16:27;19.90;75.90
60860;DHT22;46694;54.382;9.708;2023-04-29T11:19:07;19.50;74.30
60860;DHT22;46694;54.382;9.708;2023-04-29T11:21:47;19.30;76.10
60860;DHT22;46694;54.382;9.708;2023-04-29T11:24:27;19.30;77.10
60860;DHT22;46694;54.382;9.708;2023-04-29T11:27:07;19.40;76.50
60860;DHT22;46694;54.382;9.708;2023-04-29T11:29:46;19.50;77.10
60860;DHT22;46694;54.382;9.708;2023-04-29T11:32:30;19.70;77.80
60860;DHT22;46694;54.382;9.708;2023-04-29T11:37:50;19.80;76.70
60860;DHT22;46694;54.382;9.708;2023-04-29T11:40:31;19.70;76.50
60860;DHT22;46694;54.382;9.708;2023-04-29T11:43:19;19.70;77.40
60860;DHT22;46694;54.382;9.708;2023-04-29T11:45:58;19.80;78.10
60860;DHT22;46694;54.382;9.708;2023-04-29T11:48:45;20.00;78.10
60860;DHT22;46694;54.382;9.708;2023-04-29T11:51:28;19.90;77.80
60860;DHT22;46694;54.382;9.708;2023-04-29T11:54:08;19.90;77.20
60860;DHT22;46694;54.382;9.708;2023-04-29T11:56:47;19.60;76.90
60860;DHT22;46694;54.382;9.708;2023-04-29T11:59:27;19.30;77.20
60860;DHT22;46694;54.382;9.708;2023-04-29T12:02:11;19.10;77.30
60860;DHT22;46694;54.382;9.708;2023-04-29T12:04:51;19.20;75.70
60860;DHT22;46694;54.382;9.708;2023-04-29T12:07:30;19.40;74.60
60860;DHT22;46694;54.382;9.708;2023-04-29T12:10:10;19.50;75.00
60860;DHT22;46694;54.382;9.708;2023-04-29T12:12:50;19.40;75.10
60860;DHT22;46694;54.382;9.708;2023-04-29T12:15:30;19.60;78.40
60860;DHT22;46694;54.382;9.708;2023-04-29T12:18:11;19.80;76.80
60860;DHT22;46694;54.382;9.708;2023-04-29T12:20:51;19.60;77.10
60860;DHT22;46694;54.382;9.708;2023-04-29T12:23:31;19.40;78.40
60860;DHT22;46694;54.382;9.708;2023-04-29T12:26:10;19.20;78.80
60860;DHT22;46694;54.382;9.708;2023-04-29T12:28:53;18.90;79.90
60860;DHT22;46694;54.382;9.708;2023-04-29T12:31:33;18.70;81.20
60860;DHT22;46694;54.382;9.708;2023-04-29T12:34:13;18.80;81.80
60860;DHT22;46694;54.382;9.708;2023-04-29T12:36:59;18.70;81.70
60860;DHT22;46694;54.382;9.708;2023-04-29T12:39:40;18.60;82.50
60860;DHT22;46694;54.382;9.708;2023-04-29T12:42:19;18.60;83.10
60860;DHT22;46694;54.382;9.708;2023-04-29T12:44:59;18.50;83.40
60860;DHT22;46694;54.382;9.708;2023-04-29T12:47:39;18.30;83.40
60860;DHT22;46694;54.382;9.708;2023-04-29T12:50:18;18.00;83.70
60860;DHT22;46694;54.382;9.708;2023-04-29T12:52:58;17.80;84.80
60860;DHT22;46694;54.382;9.708;2023-04-29T12:55:37;17.70;86.60
60860;DHT22;46694;54.382;9.708;2023-04-29T12:58:18;17.90;88.30
60860;DHT22;46694;54.382;9.708;2023-04-29T13:00:57;18.20;88.50
60860;DHT22;46694;54.382;9.708;2023-04-29T13:03:37;18.20;87.80
60860;DHT22;46694;54.382;9.708;2023-04-29T13:06:16;17.80;87.00
60860;DHT22;46694;54.382;9.708;2023-04-29T13:08:56;17.40;87.60
60860;DHT22;46694;54.382;9.708;2023-04-29T13:11:38;17.00;88.30
60860;DHT22;46694;54.382;9.708;2023-04-29T13:14:18;16.80;89.80
60860;DHT22;46694;54.382;9.708;2023-04-29T13:16:57;16.80;90.50
60860;DHT22;46694;54.382;9.708;2023-04-29T13:19:40;16.90;91.10
60860;DHT22;46694;54.382;9.708;2023-04-29T13:22:20;17.00;91.40
60860;DHT22;46694;54.382;9.708;2023-04-29T13:25:00;17.00;91.30
60860;DHT22;46694;54.382;9.708;2023-04-29T13:27:40;16.80;91.10
60860;DHT22;46694;54.382;9.708;2023-04-29T13:30:20;16.50;91.30
60860;DHT22;46694;54.382;9.708;2023-04-29T13:32:59;16.20;91.50
60860;DHT22;46694;54.382;9.708;2023-04-29T13:35:39;15.90;91.90
60860;DHT22;46694;54.382;9.708;2023-04-29T13:38:19;15.60;92.40
60860;DHT22;46694;54.382;9.708;2023-04-29T13:40:59;15.50;93.10
60860;DHT22;46694;54.382;9.708;2023-04-29T13:43:38;15.60;93.40
60860;DHT22;46694;54.382;9.708;2023-04-29T13:46:18;15.90;93.70
60860;DHT22;46694;54.382;9.708;2023-04-29T13:48:58;16.20;94.00
60860;DHT22;46694;54.382;9.708;2023-04-29T13:51:38;16.60;93.90
60860;DHT22;46694;54.382;9.708;2023-04-29T13:54:18;16.90;93.80
60860;DHT22;46694;54.382;9.708;2023-04-29T13:57:00;17.00;93.60
60860;DHT22;46694;54.382;9.708;2023-04-29T13:59:42;17.00;92.50
60860;DHT22;46694;54.382;9.708;2023-04-29T14:02:21;16.80;91.60
60860;DHT22;46694;54.382;9.708;2023-04-29T14:05:01;16.60;91.40
60860;DHT22;46694;54.382;9.708;2023-04-29T14:07:41;16.40;91.40
60860;DHT22;46694;54.382;9.708;2023-04-29T14:10:20;16.30;91.60
60860;DHT22;46694;54.382;9.708;2023-04-29T14:12:59;16.20;92.40
60860;DHT22;46694;54.382;9.708;2023-04-29T14:15:39;16.20;92.00
60860;DHT22;46694;54.382;9.708;2023-04-29T14:18:18;16.20;91.90
60860;DHT22;46694;54.382;9.708;2023-04-29T14:20:58;16.40;91.90
60860;DHT22;46694;54.382;9.708;2023-04-29T14:23:38;16.40;91.90
60860;DHT22;46694;54.382;9.708;2023-04-29T14:26:17;16.40;92.00
60860;DHT22;46694;54.382;9.708;2023-04-29T14:28:58;16.30;92.00
60860;DHT22;46694;54.382;9.708;2023-04-29T14:31:38;16.20;92.00
60860;DHT22;46694;54.382;9.708;2023-04-29T14:34:17;16.10;91.60
60860;DHT22;46694;54.382;9.708;2023-04-29T14:36:57;15.90;91.30
60860;DHT22;46694;54.382;9.708;2023-04-29T14:39:37;15.70;91.10
60860;DHT22;46694;54.382;9.708;2023-04-29T14:42:17;15.40;90.80
60860;DHT22;46694;54.382;9.708;2023-04-29T14:44:56;15.20;90.40
60860;DHT22;46694;54.382;9.708;2023-04-29T14:47:36;15.20;90.40
60860;DHT22;46694;54.382;9.708;2023-04-29T14:50:16;15.00;90.50
60860;DHT22;46694;54.382;9.708;2023-04-29T14:52:56;14.70;90.70
60860;DHT22;46694;54.382;9.708;2023-04-29T14:55:36;14.50;90.80
60860;DHT22;46694;54.382;9.708;2023-04-29T14:58:15;14.50;91.10
60860;DHT22;46694;54.382;9.708;2023-04-29T15:01:07;14.50;91.30
60860;DHT22;46694;54.382;9.708;2023-04-29T15:03:47;14.50;91.30
60860;DHT22;46694;54.382;9.708;2023-04-29T15:06:26;14.50;91.40
60860;DHT22;46694;54.382;9.708;2023-04-29T15:09:06;14.60;91.10
60860;DHT22;46694;54.382;9.708;2023-04-29T15:11:52;14.60;91.00
60860;DHT22;46694;54.382;9.708;2023-04-29T15:14:31;14.60;90.70
60860;DHT22;46694;54.382;9.708;2023-04-29T15:17:12;14.50;90.70
60860;DHT22;46694;54.382;9.708;2023-04-29T15:19:51;14.60;90.70
60860;DHT22;46694;54.382;9.708;2023-04-29T15:22:30;14.50;90.50
60860;DHT22;46694;54.382;9.708;2023-04-29T15:25:10;14.30;90.40
60860;DHT22;46694;54.382;9.708;2023-04-29T15:27:50;14.20;90.50
60860;DHT22;46694;54.382;9.708;2023-04-29T15:30:29;14.20;90.60
60860;DHT22;46694;54.382;9.708;2023-04-29T15:33:09;14.20;90.70
60860;DHT22;46694;54.382;9.708;2023-04-29T15:35:48;14.20;90.70
60860;DHT22;46694;54.382;9.708;2023-04-29T15:38:29;14.10;90.70
60860;DHT22;46694;54.382;9.708;2023-04-29T15:41:08;14.10;90.70
60860;DHT22;46694;54.382;9.708;2023-04-29T15:43:48;14.00;90.90
60860;DHT22;46694;54.382;9.708;2023-04-29T15:46:29;14.00;90.90
60860;DHT22;46694;54.382;9.708;2023-04-29T15:49:09;14.00;91.10
60860;DHT22;46694;54.382;9.708;2023-04-29T15:51:50;13.90;91.10
60860;DHT22;46694;54.382;9.708;2023-04-29T15:54:29;13.90;90.90
60860;DHT22;46694;54.382;9.708;2023-04-29T15:57:09;13.70;91.00
60860;DHT22;46694;54.382;9.708;2023-04-29T15:59:49;13.60;91.20
60860;DHT22;46694;54.382;9.708;2023-04-29T16:02:28;13.50;91.40
60860;DHT22;46694;54.382;9.708;2023-04-29T16:05:08;13.50;91.70
60860;DHT22;46694;54.382;9.708;2023-04-29T16:07:48;13.60;92.00
60860;DHT22;46694;54.382;9.708;2023-04-29T16:10:28;13.50;91.80
60860;DHT22;46694;54.382;9.708;2023-04-29T16:13:07;13.40;91.80
60860;DHT22;46694;54.382;9.708;2023-04-29T16:15:47;13.30;91.90
60860;DHT22;46694;54.382;9.708;2023-04-29T16:18:26;13.20;92.10
60860;DHT22;46694;54.382;9.708;2023-04-29T16:21:06;13.10;92.20
60860;DHT22;46694;54.382;9.708;2023-04-29T16:23:46;13.00;92.30
60860;DHT22;46694;54.382;9.708;2023-04-29T16:26:26;12.90;92.40
60860;DHT22;46694;54.382;9.708;2023-04-29T16:29:07;12.70;92.60
60860;DHT22;46694;54.382;9.708;2023-04-29T16:31:48;12.70;92.80
60860;DHT22;46694;54.382;9.708;2023-04-29T16:34:28;12.70;93.00
60860;DHT22;46694;54.382;9.708;2023-04-29T16:37:08;12.80;93.30
60860;DHT22;46694;54.382;9.708;2023-04-29T16:39:50;12.90;93.60
60860;DHT22;46694;54.382;9.708;2023-04-29T16:42:30;12.80;93.60
60860;DHT22;46694;54.382;9.708;2023-04-29T16:45:10;12.70;93.80
60860;DHT22;46694;54.382;9.708;2023-04-29T16:47:52;12.60;93.90
60860;DHT22;46694;54.382;9.708;2023-04-29T16:50:32;12.50;94.00
60860;DHT22;46694;54.382;9.708;2023-04-29T16:53:16;12.40;94.20
60860;DHT22;46694;54.382;9.708;2023-04-29T16:55:55;12.40;94.50
60860;DHT22;46694;54.382;9.708;2023-04-29T16:58:35;12.30;94.80
60860;DHT22;46694;54.382;9.708;2023-04-29T17:01:15;12.30;95.10
60860;DHT22;46694;54.382;9.708;2023-04-29T17:03:57;12.30;95.40
60860;DHT22;46694;54.382;9.708;2023-04-29T17:06:37;12.30;95.60
60860;DHT22;46694;54.382;9.708;2023-04-29T17:09:18;12.30;95.80
60860;DHT22;46694;54.382;9.708;2023-04-29T17:11:58;12.20;95.90
60860;DHT22;46694;54.382;9.708;2023-04-29T17:14:37;12.10;96.00
60860;DHT22;46694;54.382;9.708;2023-04-29T17:17:18;12.00;96.10
60860;DHT22;46694;54.382;9.708;2023-04-29T17:19:58;11.80;96.20
60860;DHT22;46694;54.382;9.708;2023-04-29T17:22:37;11.70;96.30
60860;DHT22;46694;54.382;9.708;2023-04-29T17:25:18;11.60;96.30
60860;DHT22;46694;54.382;9.708;2023-04-29T17:28:00;11.50;96.40